< Typhoon 199118 1991 Season Typhoon 199120 >
Typhoon 199119 (MIREILLE)
General InformationTrack Information on Google MapsDetailed Wind InformationList of All Images || NewsDisaster Info.ResourceGoogle EarthGE AnimationAtom FeedGeoJSON
Detalied Best Track (Time Zone = UTC)
Year Month Day Hour Lat. Long. Pressure (hPa) Wind (kt) Class Image Chart
1991 9 13 00 13.0 171.0 1010 0 2 Image Chart
1991 9 13 06 12.5 170.4 1010 0 2 Image Chart
1991 9 13 12 12.5 170.0 1010 0 2 Image Chart
1991 9 13 18 12.6 169.3 1010 0 2 Image Chart
1991 9 14 00 12.9 168.7 1008 0 2 Image Chart
1991 9 14 06 13.1 167.9 1006 0 2 Image Chart
1991 9 14 12 13.1 167.1 1006 0 2 Image Chart
1991 9 14 18 13.4 166.0 1006 0 2 Image Chart
1991 9 15 00 13.5 164.8 1004 0 2 Image Chart
1991 9 15 06 13.6 163.1 1004 0 2 Image Chart
1991 9 15 12 14.0 161.6 1004 0 2 Image Chart
1991 9 15 18 14.5 159.8 1004 0 2 Image Chart
1991 9 16 00 14.8 158.7 1000 35 3 Image Chart
1991 9 16 06 15.1 157.4 990 50 4 Image Chart
1991 9 16 12 15.2 156.6 985 55 4 Image Chart
1991 9 16 18 15.4 155.9 970 65 5 Image Chart
1991 9 17 00 15.8 155.1 965 70 5 Image Chart
1991 9 17 06 16.0 154.4 965 70 5 Image Chart
1991 9 17 12 16.2 153.7 965 70 5 Image Chart
1991 9 17 18 16.2 153.1 965 70 5 Image Chart
1991 9 18 00 15.9 152.5 960 75 5 Image Chart
1991 9 18 06 15.7 151.7 960 75 5 Image Chart
1991 9 18 12 15.5 151.0 955 80 5 Image Chart
1991 9 18 18 15.4 150.2 955 80 5 Image Chart
1991 9 19 00 15.4 148.9 955 80 5 Image Chart
1991 9 19 06 15.5 147.5 955 80 5 Image Chart
1991 9 19 12 15.6 146.0 955 80 5 Image Chart
1991 9 19 18 15.6 144.5 955 80 5 Image Chart
1991 9 20 00 15.3 143.3 955 80 5 Image Chart
1991 9 20 06 15.1 141.8 955 80 5 Image Chart
1991 9 20 12 15.0 140.6 955 80 5 Image Chart
1991 9 20 18 14.6 139.2 955 80 5 Image Chart
1991 9 21 00 14.4 138.4 955 80 5 Image Chart
1991 9 21 06 14.4 137.2 950 80 5 Image Chart
1991 9 21 12 14.8 136.1 945 85 5 Image Chart
1991 9 21 18 15.1 135.3 940 90 5 Image Chart
1991 9 22 00 15.4 134.5 940 90 5 Image Chart
1991 9 22 06 15.8 133.7 935 95 5 Image Chart
1991 9 22 12 16.3 133.2 935 95 5 Image Chart
1991 9 22 18 16.8 132.6 935 95 5 Image Chart
1991 9 23 00 17.5 132.1 930 95 5 Image Chart
1991 9 23 06 18.2 131.5 925 100 5 Image Chart
1991 9 23 12 18.8 130.7 925 100 5 Image Chart
1991 9 23 18 19.1 130.1 925 100 5 Image Chart
1991 9 24 00 19.3 129.7 925 100 5 Image Chart
1991 9 24 06 19.9 129.2 925 100 5 Image Chart
1991 9 24 12 20.4 128.8 930 95 5 Image Chart
1991 9 24 15 20.6 128.5 930 95 5 Image Chart
1991 9 24 18 20.9 128.2 930 95 5 Image Chart
1991 9 24 21 21.2 127.9 935 95 5 Image Chart
1991 9 25 00 21.4 127.6 935 95 5 Image Chart
1991 9 25 03 21.8 127.4 935 95 5 Image Chart
1991 9 25 06 22.2 127.2 940 90 5 Image Chart
1991 9 25 09 22.6 127.0 940 90 5 Image Chart
1991 9 25 12 23.0 126.8 940 90 5 Image Chart
1991 9 25 15 23.4 126.4 940 90 5 Image Chart
1991 9 25 18 23.7 126.1 940 90 5 Image Chart
1991 9 25 21 24.0 125.9 940 90 5 Image Chart
1991 9 26 00 24.4 125.8 940 90 5 Image Chart
1991 9 26 03 24.9 125.7 935 95 5 Image Chart
1991 9 26 06 25.4 125.7 935 95 5 Image Chart
1991 9 26 09 25.9 125.8 935 95 5 Image Chart
1991 9 26 12 26.5 126.0 935 95 5 Image Chart
1991 9 26 15 27.3 126.2 930 95 5 Image Chart
1991 9 26 18 28.1 126.4 930 95 5 Image Chart
1991 9 26 21 29.0 126.9 935 95 5 Image Chart
1991 9 27 00 29.9 127.6 935 95 5 Image Chart
1991 9 27 03 31.2 128.4 935 95 5 Image Chart
1991 9 27 06 32.5 129.3 935 95 5 Image Chart
1991 9 27 07 32.8 129.7 940 95 5 Image Chart
1991 9 27 09 33.9 130.6 945 90 5 Image Chart
1991 9 27 12 35.5 132.3 945 90 5 Image Chart
1991 9 27 15 37.1 133.9 950 85 5 Image Chart
1991 9 27 18 39.0 136.3 950 85 5 Image Chart
1991 9 27 21 40.7 138.3 955 80 5 Image Chart
1991 9 27 22 41.2 139.0 955 80 5 Image Chart
1991 9 28 00 43.5 141.7 970 65 5 Image Chart
1991 9 28 03 45.5 145.5 970 60 4 Image Chart
1991 9 28 06 47.0 148.0 966 0 6 Image Chart
1991 9 28 12 48.0 152.0 966 0 6 Image Chart
1991 9 28 18 49.0 155.0 962 0 6 Image Chart
1991 9 29 00 52.0 164.0 960 0 6 Image Chart
1991 9 29 06 53.0 169.0 952 0 6 Image Chart
1991 9 29 12 53.0 172.0 948 0 6 Image Chart
1991 9 29 18 53.0 174.0 952 0 6 Image Chart
1991 9 30 00 53.0 175.0 956 0 6 Image Chart
1991 9 30 06 54.0 177.0 960 0 6 Image Chart
1991 9 30 12 54.0 179.0 960 0 6 Image Chart
1991 9 30 18 54.0 180.0 968 0 6 Image Chart
1991 10 1 00 55.0 181.0 972 0 6 Image Chart
Japan Meteorological Agency Best Track Data | Correction Date : 1992-05-08
< Typhoon 199118 1991 Season Typhoon 199120 >

Help